AirNav   Bose Proflight aviation headeet
 
 888 users online  

82NM Skeen Ranch Airport
Picacho, New Mexico, USA

GOING TO PICACHO?


FAA INFORMATION EFFECTIVE 03 JANUARY 2019

Location

FAA Identifier: 82NM
Lat/Long: 33-10-12.3470N / 105-08-01.9270W
33-10.205783N / 105-08.032117W
33.1700964 / -105.1338686
(estimated)
Elevation: 5524 ft. / 1684 m (estimated)
Variation: 10E (1985)
From city: 15 miles S of PICACHO, NM
Time zone: UTC -7 (UTC -6 during Daylight Saving Time)
Zip code: 88336

Airport Operations

Airport use: Private use. Permission required prior to landing
Activation date: 08/1961
Control tower: no
ARTCC: ALBUQUERQUE CENTER
FSS: ALBUQUERQUE FLIGHT SERVICE STATION
Attendance: CONTINUOUS
Wind indicator: yes
Segmented circle: no

Nearby radio navigation aids

VOR radial/distance  VOR name  Freq  Var
CMEr237/27.6CHISUM VORTAC116.1012E
PIOr001/39.4PINON VOR/DME110.4012E

 
NDB name  Hdg/Dist  Freq  Var  ID
CAPITAN135/23.527810ECEP -.-. . .--.
ARTESIA290/38.941409EATS .- - ...

Airport Services

Fuel available: MOGAS
Airframe service: NONE
Powerplant service: NONE

Runway Information

Runway 3/21

Dimensions: 3000 x 40 ft. / 914 x 12 m
Surface: dirt
RUNWAY 3  RUNWAY 21
Traffic pattern: leftleft

Airport Ownership and Management from official FAA records

Ownership: Privately-owned
Owner: JOSEPH R SKEEN
PO BOX 67
PICACHO, NM 88343
Phone 505-653-4084
Manager: MIKE L. SKEEN
PO BOX 67
PICACHO, NM 88343
Phone 505-653-4347

Airport Operational Statistics

Aircraft based on the field: 2
Single engine airplanes: 1
Ultralights: 1
    

Additional Remarks

A52-21 RDO ANT AND HOUSE N END. HILLS ALL APCHS. APCHS HAZARDOUS.
LIVESTOCK ON FIELD.

Instrument Procedures

There are no published instrument procedures at 82NM.

Some nearby airports with instrument procedures:

KSRR - Sierra Blanca Regional Airport (26 nm NW)
KROW - Roswell International Air Center Airport (31 nm E)
KATS - Artesia Municipal Airport (39 nm SE)
KALM - Alamogordo-White Sands Regional Airport (47 nm SW)
KHMN - Holloman Air Force Base (53 nm W)
 
Loc | Ops | Rwys | IFR | FBO | Links
Com | Nav | Svcs | Stats | Notes

Chandler Aviation LLC
 
Area around 82NM (Skeen Ranch Airport)
 
Road maps at: MapQuest Bing Google
 
Aerial photo
No photo
 
Sectional chart

 
Airport distance calculator
Flying to Skeen Ranch Airport? Find the distance to fly.

From to 82NM

Sunrise and sunset
Times for 18-Jan-2019
 Local
(UTC-7)
 Zulu
(UTC)
Morning civil twilight06:3813:38
Sunrise07:0414:04
Sunset17:1800:18
Evening civil twilight17:4500:45

Current date and time
Zulu (UTC)  19-Jan-2019 02:00:20
Local (UTC-7)  18-Jan-2019 19:00:20
 
METAR
KSRR 
26nm NW 
190135Z AUTO 32018G28KT 10SM CLR 00/M07 A3005 RMK AO2
KROW 
33nm E 
190151Z 31025G34KT 10SM BLDU CLR 10/M06 A2993 RMK AO2 PK WND 31036/0140 SLP113 T01001056
KATS 
39nm SE 
190155Z AUTO 31032G37KT 10SM CLR 11/M06 A2995 RMK AO2
KALM 
47nm SW 
190135Z AUTO 02013KT 10SM CLR 08/M08 A3006 RMK AO2
TAF
KROW 
33nm E 
181939Z 1820/1918 31035G45KT P6SM BKN090 TEMPO 1820/1824 3SM BLDU SCT009 FM190400 34025G35KT P6SM BKN100 FM190800 32009KT P6SM SKC
NOTAMs
Click for the latest NOTAMs
NOTAMs are issued by the DoD/FAA and will open in a separate window not controlled by AirNav.

 

 
 

Would you like to see your business listed on this page?

 If your business provides an interesting product or service to pilots, flight crews, aircraft, or users of the Skeen Ranch Airport, you should consider listing it here.  To start the listing process, click on the button below
 
Add a business
 

Other Pages about Skeen Ranch Airport

Update a link
 
Copyright © AirNav, LLC. All rights reserved. Privacy Policy  Contact